Time;durP1;ratioP1;P1;durP2;ratioP2;P2;SDS_P1;SDS_P2;PMS_P1;PMS_P2;Temp;Humidity;BMP_temperature;BMP_pressure;BME280_temperature;BME280_humidity;BME280_pressure;Samples;Min_cycle;Max_cycle;Signal;HPM_P1;HPM_P2
2021/08/19 00:02:14;;;;;;;18.10;8.02;;;18.40;92.00;;;;;;5086821;28;20032;-74
2021/08/19 00:04:41;;;;;;;13.25;7.60;;;18.40;92.00;;;;;;5077597;28;20425;-74
2021/08/19 00:07:07;;;;;;;12.23;7.35;;;18.30;91.90;;;;;;5077322;28;20496;-74
2021/08/19 00:09:34;;;;;;;13.93;8.77;;;18.30;92.00;;;;;;5094508;28;20067;-74
2021/08/19 00:11:59;;;;;;;12.45;7.53;;;18.40;92.00;;;;;;5112317;28;20557;-74
2021/08/19 00:14:26;;;;;;;10.63;7.45;;;18.40;91.90;;;;;;5093879;28;20032;-74
2021/08/19 00:16:51;;;;;;;12.20;7.78;;;18.40;91.90;;;;;;5076827;28;20395;-74
2021/08/19 00:19:17;;;;;;;14.27;8.07;;;18.40;91.90;;;;;;5108973;28;20036;-74
2021/08/19 00:21:43;;;;;;;14.05;7.35;;;18.40;91.90;;;;;;5111912;28;20034;-74
2021/08/19 00:24:08;;;;;;;15.50;7.20;;;18.40;91.90;;;;;;5093869;28;20555;-75
2021/08/19 00:26:34;;;;;;;11.57;7.43;;;18.40;91.90;;;;;;5042873;28;20033;-74
2021/08/19 00:29:00;;;;;;;11.18;7.80;;;18.40;91.90;;;;;;5070250;28;20044;-74
2021/08/19 00:31:25;;;;;;;16.33;8.60;;;18.40;91.90;;;;;;5079835;28;20035;-74
2021/08/19 00:33:52;;;;;;;13.98;8.05;;;18.40;91.90;;;;;;5073895;28;20051;-75
2021/08/19 00:36:18;;;;;;;13.40;7.78;;;18.40;91.90;;;;;;5098396;28;20030;-74
2021/08/19 00:38:45;;;;;;;12.23;7.32;;;18.30;91.80;;;;;;5116209;28;20103;-74
2021/08/19 00:41:12;;;;;;;13.30;7.70;;;18.30;91.80;;;;;;5098175;28;20025;-74
2021/08/19 00:43:38;;;;;;;12.90;7.72;;;18.40;91.80;;;;;;5116264;28;20046;-74
2021/08/19 00:46:33;;;;;;;14.65;8.77;;;18.30;91.80;;;;;;5089023;28;20024;-74
2021/08/19 00:49:14;;;;;;;12.15;7.90;;;18.40;91.90;;;;;;5082390;28;20028;-74
2021/08/19 00:51:44;;;;;;;16.90;8.15;;;18.30;91.80;;;;;;5106043;28;20026;-74
2021/08/19 00:54:13;;;;;;;11.02;7.38;;;18.30;91.80;;;;;;5116318;28;20015;-74
2021/08/19 00:56:39;;;;;;;12.30;7.97;;;18.30;91.80;;;;;;5098070;28;20059;-74
2021/08/19 00:59:11;;;;;;;12.65;7.97;;;18.30;91.80;;;;;;5116100;28;20031;-74
2021/08/19 01:01:37;;;;;;;16.50;8.70;;;18.30;91.90;;;;;;5097624;28;20058;-74
2021/08/19 01:04:10;;;;;;;12.18;7.28;;;18.30;91.80;;;;;;5105810;28;20536;-74
2021/08/19 01:06:36;;;;;;;19.20;7.80;;;18.30;91.90;;;;;;5081095;28;20027;-74
2021/08/19 01:09:07;;;;;;;18.50;8.23;;;18.30;91.90;;;;;;5097782;28;20547;-73
2021/08/19 01:11:34;;;;;;;20.92;8.55;;;18.30;91.90;;;;;;5116071;28;20083;-74
2021/08/19 01:14:02;;;;;;;16.52;8.30;;;18.30;91.90;;;;;;5097782;28;20389;-74
2021/08/19 01:16:30;;;;;;;14.18;8.43;;;18.30;91.90;;;;;;5097369;28;20072;-74
2021/08/19 01:18:56;;;;;;;11.63;8.27;;;18.30;91.90;;;;;;5115562;28;20396;-74
2021/08/19 01:21:21;;;;;;;13.80;8.50;;;18.30;92.00;;;;;;5042175;28;20048;-74
2021/08/19 01:23:47;;;;;;;14.60;8.27;;;18.20;92.10;;;;;;5061249;28;20036;-74
2021/08/19 01:26:15;;;;;;;13.05;7.47;;;18.20;92.20;;;;;;5109771;28;20039;-74
2021/08/19 01:28:41;;;;;;;14.07;7.63;;;18.20;92.20;;;;;;5115139;28;20508;-74
2021/08/19 01:31:12;;;;;;;13.25;8.40;;;18.20;92.50;;;;;;5115796;28;20422;-74
2021/08/19 01:33:41;;;;;;;16.02;8.32;;;18.20;92.30;;;;;;5097521;28;20038;-74
2021/08/19 01:36:07;;;;;;;17.48;8.27;;;18.20;92.30;;;;;;5115336;28;20030;-74
2021/08/19 01:38:34;;;;;;;15.15;8.02;;;18.20;92.30;;;;;;5097182;28;20024;-74
2021/08/19 01:41:01;;;;;;;17.77;7.85;;;18.30;92.40;;;;;;5080311;28;20031;-73
2021/08/19 01:43:28;;;;;;;11.05;6.78;;;18.20;92.40;;;;;;5115393;28;20030;-74
2021/08/19 01:46:07;;;;;;;13.02;7.82;;;18.30;92.70;;;;;;5096839;28;20020;-73
2021/08/19 01:48:38;;;;;;;12.93;7.65;;;18.20;92.40;;;;;;5096445;28;20027;-74
2021/08/19 01:51:06;;;;;;;11.45;8.25;;;18.20;92.40;;;;;;5082654;28;20024;-74
2021/08/19 01:53:31;;;;;;;11.57;7.32;;;18.20;92.40;;;;;;5095592;28;20028;-73
2021/08/19 01:55:58;;;;;;;12.70;7.72;;;18.20;92.50;;;;;;5075216;28;20145;-74
2021/08/19 01:58:24;;;;;;;15.52;7.80;;;18.20;92.50;;;;;;5075001;28;20082;-73
2021/08/19 02:00:49;;;;;;;15.10;8.45;;;18.20;92.50;;;;;;5114730;28;20473;-74
2021/08/19 02:03:15;;;;;;;16.73;8.23;;;18.20;92.60;;;;;;5115026;28;20030;-73
2021/08/19 02:05:42;;;;;;;11.30;7.90;;;18.20;92.60;;;;;;5107867;28;20032;-74
2021/08/19 02:08:09;;;;;;;12.07;8.25;;;18.20;92.60;;;;;;5056584;28;20016;-74
2021/08/19 02:10:36;;;;;;;8.82;7.00;;;18.20;92.70;;;;;;5095951;28;20039;-74
2021/08/19 02:13:02;;;;;;;9.45;6.57;;;18.20;92.70;;;;;;5114275;28;20076;-74
2021/08/19 02:15:27;;;;;;;12.77;8.32;;;18.20;92.70;;;;;;5075258;28;20028;-74
2021/08/19 02:17:53;;;;;;;13.20;7.55;;;18.10;92.60;;;;;;5076311;28;20030;-74
2021/08/19 02:20:19;;;;;;;10.10;7.20;;;18.10;92.60;;;;;;5106189;28;20547;-74
2021/08/19 02:22:47;;;;;;;13.82;7.63;;;18.20;92.70;;;;;;5074629;28;20387;-74
2021/08/19 02:25:13;;;;;;;14.55;8.20;;;18.20;92.70;;;;;;5078386;28;20496;-74
2021/08/19 02:27:39;;;;;;;16.40;7.63;;;18.20;92.70;;;;;;5094164;28;20066;-73
2021/08/19 02:30:05;;;;;;;11.48;8.05;;;18.10;92.70;;;;;;5108907;28;20046;-73
2021/08/19 02:32:31;;;;;;;12.43;7.95;;;18.10;92.70;;;;;;5063970;28;20040;-74
2021/08/19 02:34:57;;;;;;;18.30;8.90;;;18.10;92.70;;;;;;5108144;28;20019;-74
2021/08/19 02:37:23;;;;;;;20.38;7.78;;;18.20;92.70;;;;;;5113875;28;20076;-74
2021/08/19 02:39:49;;;;;;;13.57;7.32;;;18.10;92.70;;;;;;5113933;28;20032;-74
2021/08/19 02:42:14;;;;;;;16.17;8.18;;;18.10;92.70;;;;;;5095920;28;20492;-73
2021/08/19 02:44:40;;;;;;;13.25;7.30;;;18.10;92.60;;;;;;5095498;28;20040;-73
2021/08/19 02:47:06;;;;;;;16.33;8.15;;;18.10;92.60;;;;;;5113522;28;20043;-74
2021/08/19 02:49:32;;;;;;;13.85;7.75;;;18.10;92.60;;;;;;5091372;28;20488;-74
2021/08/19 02:51:58;;;;;;;14.90;8.73;;;18.10;92.60;;;;;;5080929;28;20464;-73
2021/08/19 02:54:24;;;;;;;13.02;7.57;;;18.10;92.60;;;;;;5078297;28;20032;-74
2021/08/19 02:56:49;;;;;;;13.45;8.65;;;18.10;92.60;;;;;;5067119;28;20044;-74
2021/08/19 02:59:15;;;;;;;15.05;8.50;;;18.10;92.60;;;;;;5092742;28;20035;-74
2021/08/19 03:01:40;;;;;;;18.13;9.25;;;18.10;92.60;;;;;;5078685;28;20476;-74
2021/08/19 03:04:06;;;;;;;14.63;9.15;;;18.10;92.60;;;;;;5095170;28;20031;-74
2021/08/19 03:06:32;;;;;;;13.60;7.80;;;18.10;92.60;;;;;;5102655;28;20024;-74
2021/08/19 03:08:57;;;;;;;13.52;9.25;;;18.10;92.60;;;;;;5093444;28;20031;-74
2021/08/19 03:11:23;;;;;;;13.52;7.68;;;18.10;92.60;;;;;;5113685;28;20421;-74
2021/08/19 03:13:49;;;;;;;19.00;9.95;;;18.10;92.60;;;;;;5094980;28;20110;-74
2021/08/19 03:16:14;;;;;;;16.00;8.68;;;18.10;92.60;;;;;;5091396;28;20028;-74
2021/08/19 03:18:40;;;;;;;14.55;8.65;;;18.00;92.50;;;;;;5109899;28;20036;-74
2021/08/19 03:21:06;;;;;;;14.30;8.15;;;18.00;92.40;;;;;;5061469;28;20106;-74
2021/08/19 03:23:32;;;;;;;18.73;8.77;;;18.10;92.40;;;;;;5103637;28;20084;-74
2021/08/19 03:25:58;;;;;;;16.10;8.93;;;18.10;92.40;;;;;;5095472;28;20439;-74
2021/08/19 03:28:23;;;;;;;17.20;8.63;;;18.00;92.30;;;;;;5095019;28;20055;-74
2021/08/19 03:30:50;;;;;;;17.80;9.57;;;18.00;92.30;;;;;;5113217;28;20388;-74
2021/08/19 03:33:19;;;;;;;18.30;9.88;;;18.00;92.30;;;;;;5113358;28;20031;-74
2021/08/19 03:35:45;;;;;;;15.95;7.70;;;18.00;92.30;;;;;;5095284;28;20373;-74
2021/08/19 03:38:11;;;;;;;14.27;9.52;;;18.00;92.20;;;;;;5106436;28;20036;-74
2021/08/19 03:40:36;;;;;;;12.30;7.68;;;18.00;92.30;;;;;;5095283;28;20032;-74
2021/08/19 03:43:02;;;;;;;13.25;8.65;;;18.00;92.30;;;;;;5094754;28;20028;-74
2021/08/19 03:45:28;;;;;;;18.30;10.20;;;18.00;92.10;;;;;;5057320;28;20119;-75
2021/08/19 03:47:54;;;;;;;16.67;9.55;;;18.00;92.10;;;;;;5102004;28;20451;-74
2021/08/19 03:50:20;;;;;;;21.65;9.93;;;18.00;92.10;;;;;;5104489;28;20059;-74
2021/08/19 03:52:46;;;;;;;15.88;9.35;;;18.00;92.10;;;;;;5088085;28;20038;-74
2021/08/19 03:55:12;;;;;;;16.83;10.00;;;18.00;92.10;;;;;;5098163;28;20027;-74
2021/08/19 03:57:38;;;;;;;16.73;10.00;;;18.00;92.10;;;;;;5112680;28;20028;-74
2021/08/19 04:00:05;;;;;;;14.48;9.20;;;17.90;92.10;;;;;;5076385;28;20089;-74
2021/08/19 04:02:30;;;;;;;17.48;9.63;;;17.90;92.00;;;;;;5112539;28;20028;-74
2021/08/19 04:04:56;;;;;;;21.25;11.02;;;17.90;92.10;;;;;;5094033;28;20031;-74
2021/08/19 04:07:22;;;;;;;12.85;8.63;;;17.90;92.00;;;;;;5112776;28;20057;-74
2021/08/19 04:09:47;;;;;;;16.17;10.57;;;17.90;92.10;;;;;;5094243;28;20032;-73
2021/08/19 04:12:13;;;;;;;16.65;10.15;;;17.90;92.00;;;;;;5075669;28;20028;-74
2021/08/19 04:14:39;;;;;;;14.98;9.38;;;17.90;92.00;;;;;;5074362;28;20024;-74
2021/08/19 04:17:04;;;;;;;15.40;9.25;;;17.90;92.00;;;;;;5094106;28;20016;-74
2021/08/19 04:19:30;;;;;;;15.98;9.25;;;17.90;92.10;;;;;;5093950;28;20661;-73
2021/08/19 04:21:56;;;;;;;16.65;9.15;;;17.90;92.10;;;;;;5094613;28;20036;-74
2021/08/19 04:24:21;;;;;;;20.98;8.88;;;17.90;92.00;;;;;;5112284;28;20031;-74
2021/08/19 04:26:47;;;;;;;15.77;9.98;;;17.90;92.00;;;;;;5086414;28;20039;-74
2021/08/19 04:29:12;;;;;;;15.57;9.15;;;17.90;92.00;;;;;;5093627;28;20051;-74
2021/08/19 04:31:38;;;;;;;19.10;9.93;;;17.90;92.00;;;;;;5093866;28;20388;-74
2021/08/19 04:34:04;;;;;;;16.83;9.48;;;17.90;92.00;;;;;;5094303;28;20101;-74
2021/08/19 04:36:33;;;;;;;16.63;9.35;;;17.90;92.00;;;;;;5104347;28;20033;-73
2021/08/19 04:38:58;;;;;;;15.70;9.35;;;17.90;91.90;;;;;;5110011;28;20084;-73
2021/08/19 04:41:24;;;;;;;18.25;9.73;;;17.90;91.90;;;;;;5112499;28;20028;-73
2021/08/19 04:43:50;;;;;;;19.15;10.70;;;17.80;91.90;;;;;;5112179;28;20028;-74
2021/08/19 04:46:16;;;;;;;14.40;9.25;;;17.80;91.90;;;;;;5112472;28;20034;-74
2021/08/19 04:48:42;;;;;;;13.02;8.75;;;17.90;91.90;;;;;;5093335;28;20047;-74
2021/08/19 04:51:07;;;;;;;16.45;9.27;;;17.80;91.90;;;;;;5108103;28;20032;-74
2021/08/19 04:53:33;;;;;;;14.77;8.88;;;17.80;92.00;;;;;;5091141;28;20396;-74
2021/08/19 04:55:58;;;;;;;15.13;8.57;;;17.90;92.00;;;;;;5112492;28;20032;-74
2021/08/19 04:58:27;;;;;;;17.90;10.43;;;17.80;91.90;;;;;;5077196;28;20028;-74
2021/08/19 05:00:52;;;;;;;15.65;9.13;;;17.80;91.90;;;;;;5094692;28;20388;-74
2021/08/19 05:03:18;;;;;;;14.98;9.30;;;17.90;91.90;;;;;;5093961;28;20031;-74
2021/08/19 05:05:44;;;;;;;17.35;9.32;;;17.80;91.90;;;;;;5068259;28;20089;-73
2021/08/19 05:08:10;;;;;;;15.38;9.23;;;17.90;91.90;;;;;;5087638;28;20500;-74
2021/08/19 05:10:35;;;;;;;17.00;9.40;;;17.80;91.90;;;;;;5094324;28;20034;-74
2021/08/19 05:13:01;;;;;;;18.88;9.55;;;17.80;91.90;;;;;;5115191;28;20035;-73
2021/08/19 05:15:27;;;;;;;14.88;8.98;;;17.90;92.20;;;;;;5097710;28;20053;-74
2021/08/19 05:17:52;;;;;;;22.48;11.18;;;17.80;91.80;;;;;;5115838;28;20023;-73
2021/08/19 05:20:18;;;;;;;17.65;9.13;;;17.90;91.90;;;;;;5085514;28;20115;-74
2021/08/19 05:22:44;;;;;;;17.00;9.10;;;17.90;91.90;;;;;;5094413;28;20085;-74
2021/08/19 05:25:10;;;;;;;14.90;9.30;;;17.90;92.00;;;;;;5096603;28;20122;-74
2021/08/19 05:27:35;;;;;;;19.65;9.80;;;17.90;92.00;;;;;;5115147;28;20036;-74
2021/08/19 05:30:01;;;;;;;19.80;9.93;;;17.90;91.90;;;;;;5115097;28;20055;-74
2021/08/19 05:32:27;;;;;;;14.82;8.75;;;17.90;91.90;;;;;;5096583;28;20024;-74
2021/08/19 05:34:52;;;;;;;14.30;9.20;;;17.90;91.90;;;;;;5096629;28;20027;-74
2021/08/19 05:37:18;;;;;;;18.52;9.30;;;18.00;92.00;;;;;;5064280;28;20033;-74
2021/08/19 05:39:43;;;;;;;20.58;9.15;;;18.00;92.00;;;;;;5056610;28;20028;-74
2021/08/19 05:42:09;;;;;;;17.00;9.77;;;18.00;92.20;;;;;;5057836;28;20783;-74
2021/08/19 05:44:36;;;;;;;15.35;10.45;;;18.00;91.90;;;;;;5096399;28;20035;-74
2021/08/19 05:47:04;;;;;;;16.95;9.95;;;18.00;91.80;;;;;;5080529;28;20057;-74
2021/08/19 05:49:33;;;;;;;15.13;9.43;;;18.00;91.90;;;;;;5096723;28;20027;-74
2021/08/19 05:51:59;;;;;;;17.92;10.88;;;18.10;91.90;;;;;;5096139;28;20026;-74
2021/08/19 05:54:24;;;;;;;18.38;10.77;;;18.10;91.80;;;;;;5073950;28;20481;-75
2021/08/19 05:56:50;;;;;;;18.23;11.18;;;18.10;91.80;;;;;;5061009;28;20090;-74
2021/08/19 05:59:15;;;;;;;15.63;9.68;;;18.10;91.70;;;;;;5094522;28;20081;-73
2021/08/19 06:01:41;;;;;;;21.88;10.60;;;18.10;91.70;;;;;;5076371;28;20109;-73
2021/08/19 06:04:07;;;;;;;19.67;11.45;;;18.10;91.70;;;;;;5107854;28;20062;-74
2021/08/19 06:06:32;;;;;;;19.48;10.80;;;18.10;91.70;;;;;;5093097;28;20545;-73
2021/08/19 06:08:58;;;;;;;17.92;9.95;;;18.20;91.80;;;;;;5069768;28;20047;-74
2021/08/19 06:11:23;;;;;;;15.48;10.25;;;18.20;91.80;;;;;;5072461;28;20240;-74
2021/08/19 06:13:49;;;;;;;20.52;11.40;;;18.20;91.70;;;;;;5089897;28;20027;-73
2021/08/19 06:16:15;;;;;;;21.80;12.23;;;18.30;91.70;;;;;;5096542;28;20069;-74
2021/08/19 06:18:40;;;;;;;21.10;11.65;;;18.30;91.60;;;;;;5089593;28;20505;-74
2021/08/19 06:21:06;;;;;;;22.30;12.43;;;18.30;91.60;;;;;;5064119;28;20039;-75
2021/08/19 06:23:32;;;;;;;21.65;12.20;;;18.30;91.60;;;;;;5095469;28;20028;-75
2021/08/19 06:25:57;;;;;;;18.38;11.07;;;18.30;91.50;;;;;;5079469;28;20042;-75
2021/08/19 06:28:26;;;;;;;18.35;11.15;;;18.30;91.50;;;;;;5096504;28;20476;-75
2021/08/19 06:30:54;;;;;;;24.20;12.23;;;18.30;91.50;;;;;;5066355;28;20047;-74
2021/08/19 06:33:20;;;;;;;22.88;12.20;;;18.30;91.50;;;;;;5078670;28;20563;-75
2021/08/19 06:35:46;;;;;;;23.45;12.32;;;18.30;91.50;;;;;;5114089;28;20133;-76
2021/08/19 06:38:12;;;;;;;21.73;12.68;;;18.30;91.70;;;;;;5078845;28;20026;-75
2021/08/19 06:40:37;;;;;;;20.45;11.82;;;18.30;91.80;;;;;;5114565;28;20375;-75
2021/08/19 06:43:03;;;;;;;19.08;11.63;;;18.30;91.50;;;;;;5094966;28;20420;-75
2021/08/19 06:45:29;;;;;;;22.33;12.90;;;18.30;91.50;;;;;;5089551;28;20557;-75
2021/08/19 06:47:54;;;;;;;25.73;12.50;;;18.40;91.50;;;;;;5069141;28;20042;-74
2021/08/19 06:50:20;;;;;;;20.83;12.40;;;18.40;91.50;;;;;;5114134;28;20077;-75
2021/08/19 06:52:45;;;;;;;21.52;13.13;;;18.40;91.50;;;;;;5096010;28;20055;-74
2021/08/19 06:55:12;;;;;;;23.60;12.95;;;18.40;91.40;;;;;;5096227;28;20099;-75
2021/08/19 06:57:38;;;;;;;22.55;13.23;;;18.40;91.40;;;;;;5096197;28;20427;-74
2021/08/19 07:00:05;;;;;;;23.25;12.48;;;18.40;91.30;;;;;;5087162;28;20028;-75
2021/08/19 07:02:31;;;;;;;25.20;13.57;;;18.40;91.30;;;;;;5100146;28;20033;-75
2021/08/19 07:04:56;;;;;;;18.80;12.85;;;18.50;91.30;;;;;;5114078;28;20028;-75
2021/08/19 07:07:22;;;;;;;21.20;13.57;;;18.50;91.30;;;;;;5095748;28;20030;-76
2021/08/19 07:09:49;;;;;;;17.77;12.52;;;18.50;91.30;;;;;;5079385;28;20031;-74
2021/08/19 07:12:14;;;;;;;17.10;12.48;;;18.50;91.30;;;;;;5095387;28;20024;-75
2021/08/19 07:14:40;;;;;;;22.38;13.35;;;18.60;91.30;;;;;;5079036;28;20028;-79
2021/08/19 07:17:06;;;;;;;23.58;13.43;;;18.60;91.20;;;;;;5057927;28;20658;-79
2021/08/19 07:19:31;;;;;;;25.10;13.30;;;18.60;91.10;;;;;;5093221;28;20042;-80
2021/08/19 07:21:57;;;;;;;21.50;12.82;;;18.60;91.40;;;;;;5079497;28;20027;-80
2021/08/19 07:24:22;;;;;;;25.38;13.93;;;18.60;91.10;;;;;;5062791;28;20024;-80
2021/08/19 07:26:48;;;;;;;22.08;13.32;;;18.60;91.00;;;;;;5079048;28;20388;-74
2021/08/19 07:29:14;;;;;;;21.38;13.07;;;18.50;91.00;;;;;;5078093;28;20058;-74
2021/08/19 07:31:39;;;;;;;18.13;12.80;;;18.60;91.10;;;;;;5063584;28;20451;-75
2021/08/19 07:34:06;;;;;;;19.02;13.23;;;18.60;91.10;;;;;;5086923;28;20024;-75
2021/08/19 07:36:32;;;;;;;21.95;14.63;;;18.60;91.00;;;;;;5088026;28;20472;-74
2021/08/19 07:39:03;;;;;;;18.73;12.57;;;18.60;91.00;;;;;;5070835;28;20425;-75
2021/08/19 07:41:31;;;;;;;21.42;14.02;;;18.60;91.00;;;;;;5071771;28;20081;-74
2021/08/19 07:43:56;;;;;;;29.05;15.85;;;18.60;90.90;;;;;;5071274;28;20471;-74
2021/08/19 07:46:22;;;;;;;27.80;15.57;;;18.70;90.90;;;;;;5089107;28;20115;-75
2021/08/19 07:48:48;;;;;;;23.08;14.38;;;18.70;90.80;;;;;;5053322;28;20024;-74
2021/08/19 07:51:15;;;;;;;22.55;14.68;;;18.70;90.90;;;;;;5069857;28;20046;-75
2021/08/19 07:53:42;;;;;;;25.35;14.88;;;18.70;90.80;;;;;;5070969;28;20024;-75
2021/08/19 07:56:07;;;;;;;22.98;15.15;;;18.70;90.60;;;;;;5070533;28;20024;-74
2021/08/19 07:58:33;;;;;;;21.17;14.80;;;18.70;90.70;;;;;;5073049;28;20507;-75
2021/08/19 08:00:59;;;;;;;22.33;14.32;;;18.70;90.80;;;;;;5081262;28;20039;-75
2021/08/19 08:03:25;;;;;;;23.60;13.57;;;18.70;90.70;;;;;;5094101;28;20036;-74
2021/08/19 08:05:51;;;;;;;22.15;15.07;;;18.70;90.70;;;;;;5092453;28;20035;-74
2021/08/19 08:08:17;;;;;;;19.55;13.02;;;18.70;90.70;;;;;;5083498;28;20032;-74
2021/08/19 08:10:43;;;;;;;19.77;14.18;;;18.70;90.60;;;;;;5077926;28;20027;-74
2021/08/19 08:13:11;;;;;;;22.10;15.10;;;18.70;90.70;;;;;;5112961;28;20047;-75
2021/08/19 08:15:38;;;;;;;18.63;14.70;;;18.70;90.80;;;;;;5109480;28;20381;-75
2021/08/19 08:18:04;;;;;;;21.75;15.52;;;18.70;90.60;;;;;;5074505;28;20081;-75
2021/08/19 08:20:31;;;;;;;20.63;15.02;;;18.70;90.40;;;;;;5095008;28;20028;-75
2021/08/19 08:22:56;;;;;;;19.27;14.32;;;18.70;90.50;;;;;;5057720;28;20096;-75
2021/08/19 08:25:22;;;;;;;18.38;14.23;;;18.70;90.40;;;;;;5094373;28;20416;-74
2021/08/19 08:28:04;;;;;;;23.92;14.45;;;18.70;90.40;;;;;;5112289;28;20059;-74
2021/08/19 08:30:33;;;;;;;22.88;15.38;;;18.80;90.40;;;;;;5110088;28;20035;-75
2021/08/19 08:33:00;;;;;;;20.02;14.43;;;18.70;90.30;;;;;;5094224;28;20035;-74
2021/08/19 08:35:25;;;;;;;22.27;14.88;;;18.70;90.30;;;;;;5069309;28;20028;-74
2021/08/19 08:37:51;;;;;;;22.77;15.00;;;18.70;90.30;;;;;;5094171;28;20160;-74
2021/08/19 08:40:18;;;;;;;19.60;14.48;;;18.70;90.40;;;;;;5068886;28;20028;-74
2021/08/19 08:42:45;;;;;;;22.25;15.95;;;18.80;90.40;;;;;;5111843;28;20035;-76
2021/08/19 08:45:12;;;;;;;21.10;14.63;;;18.80;90.30;;;;;;5112605;28;20030;-74
2021/08/19 08:47:39;;;;;;;20.95;15.02;;;18.80;90.10;;;;;;5088809;28;20392;-75
2021/08/19 08:50:07;;;;;;;18.73;14.75;;;18.90;89.90;;;;;;5095818;28;20473;-74
2021/08/19 08:52:34;;;;;;;15.52;11.88;;;18.90;89.90;;;;;;5077335;28;20032;-74
2021/08/19 08:55:02;;;;;;;21.10;12.43;;;19.00;90.00;;;;;;5088320;28;20514;-74
2021/08/19 08:57:27;;;;;;;16.75;11.75;;;19.00;90.00;;;;;;5113759;28;20032;-74
2021/08/19 08:59:54;;;;;;;16.25;10.60;;;19.10;89.80;;;;;;5081339;28;20073;-75
2021/08/19 09:02:20;;;;;;;16.25;10.45;;;19.10;89.70;;;;;;5112553;28;20078;-74
2021/08/19 09:04:46;;;;;;;18.08;10.85;;;19.20;89.50;;;;;;5097902;28;20354;-74
2021/08/19 09:07:12;;;;;;;13.88;10.57;;;19.20;89.60;;;;;;5080883;28;20146;-74
2021/08/19 09:09:37;;;;;;;18.52;11.10;;;19.30;88.90;;;;;;5097544;28;20122;-74
2021/08/19 09:12:06;;;;;;;16.92;10.15;;;19.30;88.20;;;;;;5097677;28;20026;-74
2021/08/19 09:14:35;;;;;;;;;;;19.40;87.60;;;;;;5061743;28;20107;-74
2021/08/19 09:17:04;;;;;;;13.52;9.70;;;19.40;87.70;;;;;;5089317;28;19907;-74
2021/08/19 09:19:31;;;;;;;;;;;19.40;87.60;;;;;;5097055;28;20023;-74
2021/08/19 09:22:00;;;;;;;13.15;9.82;;;19.40;87.50;;;;;;5097322;28;20325;-74
2021/08/19 09:24:27;;;;;;;;;;;19.50;87.60;;;;;;5115874;28;20461;-74
2021/08/19 09:26:54;;;;;;;15.02;9.70;;;19.60;87.10;;;;;;5114987;28;19915;-74
2021/08/19 09:29:29;;;;;;;11.23;9.40;;;19.70;86.80;;;;;;5096784;28;20048;-74
2021/08/19 09:32:07;;;;;;;13.50;9.40;;;19.80;86.00;;;;;;5057467;28;20025;-75
2021/08/19 09:34:33;;;;;;;15.40;9.30;;;19.80;85.90;;;;;;5075451;28;20025;-74
2021/08/19 09:37:01;;;;;;;17.77;9.40;;;19.90;85.60;;;;;;5075651;28;20389;-75
2021/08/19 09:39:57;;;;;;;13.43;7.88;;;19.80;85.50;;;;;;5093317;28;20028;-74
2021/08/19 09:42:36;;;;;;;9.82;7.80;;;19.80;85.30;;;;;;5095426;28;20044;-74
2021/08/19 09:45:20;;;;;;;12.30;7.75;;;19.80;85.40;;;;;;5057254;28;20021;-74
2021/08/19 09:47:46;;;;;;;9.93;6.38;;;19.70;86.10;;;;;;5095012;28;20404;-74
2021/08/19 09:50:16;;;;;;;10.55;6.13;;;19.80;86.20;;;;;;5088390;28;20032;-74
2021/08/19 09:52:43;;;;;;;10.02;5.90;;;19.90;86.10;;;;;;5094173;28;20419;-74
2021/08/19 09:55:33;;;;;;;8.98;5.50;;;20.00;85.30;;;;;;5097021;28;20027;-74
2021/08/19 09:58:00;;;;;;;9.93;5.93;;;20.10;84.90;;;;;;5074589;28;20020;-74
2021/08/19 10:00:41;;;;;;;9.30;5.45;;;20.20;84.20;;;;;;5097854;28;20499;-75
2021/08/19 10:03:08;;;;;;;7.00;5.07;;;20.30;83.50;;;;;;5090714;28;20031;-74
2021/08/19 10:05:34;;;;;;;7.97;4.60;;;20.40;83.50;;;;;;5072502;28;20062;-77
2021/08/19 10:08:00;;;;;;;13.40;4.75;;;20.40;83.70;;;;;;5076675;28;20480;-75
2021/08/19 10:10:29;;;;;;;7.40;4.55;;;20.40;83.70;;;;;;5065994;28;20078;-75
2021/08/19 10:13:02;;;;;;;9.73;4.32;;;20.50;82.80;;;;;;5094584;28;20024;-75
2021/08/19 10:15:30;;;;;;;6.53;3.70;;;20.50;82.50;;;;;;5085953;28;20043;-75
2021/08/19 10:17:58;;;;;;;7.57;3.88;;;20.50;81.80;;;;;;5066400;28;20384;-75
2021/08/19 10:20:28;;;;;;;6.43;3.77;;;20.50;81.50;;;;;;5095989;28;20150;-75
2021/08/19 10:22:57;;;;;;;7.13;3.20;;;20.50;81.10;;;;;;5114531;28;20031;-74
2021/08/19 10:25:25;;;;;;;6.72;3.00;;;20.50;80.70;;;;;;5114671;28;20034;-75
2021/08/19 10:28:18;;;;;;;5.20;3.33;;;20.50;81.70;;;;;;5075674;28;20064;-75
2021/08/19 10:30:52;;;;;;;4.82;2.50;;;20.60;81.20;;;;;;5056148;28;20044;-76
2021/08/19 10:33:36;;;;;;;5.13;2.60;;;20.60;80.30;;;;;;5063557;28;20111;-75
2021/08/19 10:36:24;;;;;;;4.82;2.88;;;20.70;79.60;;;;;;5056125;28;20405;-75
2021/08/19 10:38:49;;;;;;;5.20;2.80;;;20.70;79.30;;;;;;5091966;28;20055;-75
2021/08/19 10:41:30;;;;;;;7.38;2.90;;;20.80;78.90;;;;;;5062676;28;20452;-75
2021/08/19 10:44:08;;;;;;;4.35;2.80;;;20.90;79.30;;;;;;5095651;28;20104;-75
2021/08/19 10:46:45;;;;;;;3.20;2.55;;;20.90;78.90;;;;;;5099926;28;20035;-75
2021/08/19 10:49:30;;;;;;;5.78;3.00;;;20.90;79.00;;;;;;5082079;28;20031;-75
2021/08/19 10:52:08;;;;;;;4.22;2.90;;;20.90;78.80;;;;;;5075676;28;20619;-75
2021/08/19 10:54:40;;;;;;;4.20;2.80;;;20.90;78.30;;;;;;5060485;28;20069;-75
2021/08/19 10:57:24;;;;;;;8.35;2.92;;;20.80;77.70;;;;;;5077031;28;20040;-75
2021/08/19 11:00:12;;;;;;;4.50;2.65;;;20.80;78.70;;;;;;5113380;28;20027;-75
2021/08/19 11:02:48;;;;;;;4.63;3.08;;;20.70;79.50;;;;;;5078809;28;20031;-75
2021/08/19 11:05:37;;;;;;;4.93;2.47;;;20.60;79.80;;;;;;5088888;28;20089;-75
2021/08/19 11:08:04;;;;;;;6.13;2.40;;;20.60;80.30;;;;;;5095108;28;20023;-75
2021/08/19 11:10:38;;;;;;;5.60;2.63;;;20.40;80.20;;;;;;5078171;28;20105;-74
2021/08/19 11:13:13;;;;;;;3.40;2.22;;;20.40;80.30;;;;;;5078464;28;20028;-75
2021/08/19 11:15:49;;;;;;;5.45;2.75;;;20.30;80.20;;;;;;5113240;28;20024;-76
2021/08/19 11:18:30;;;;;;;3.70;2.42;;;20.20;80.50;;;;;;5081509;28;20084;-75
2021/08/19 11:20:56;;;;;;;5.05;2.22;;;20.10;80.20;;;;;;5095112;28;20028;-75
2021/08/19 11:23:32;;;;;;;6.65;2.25;;;20.00;80.70;;;;;;5113179;28;20039;-75
2021/08/19 11:26:06;;;;;;;4.57;2.70;;;20.00;80.60;;;;;;5094598;28;20036;-75
2021/08/19 11:28:35;;;;;;;6.63;2.70;;;20.00;80.40;;;;;;5092176;28;20063;-75
2021/08/19 11:31:11;;;;;;;6.15;2.58;;;19.90;80.70;;;;;;5093157;28;20032;-75
2021/08/19 11:33:39;;;;;;;6.10;2.42;;;19.90;80.80;;;;;;5078921;28;20030;-75
2021/08/19 11:36:05;;;;;;;8.10;2.83;;;19.90;80.60;;;;;;5078635;28;20057;-75
2021/08/19 11:38:31;;;;;;;8.15;2.90;;;19.90;81.00;;;;;;5078493;28;20054;-75
2021/08/19 11:40:58;;;;;;;4.40;2.10;;;19.90;81.00;;;;;;5078334;28;20039;-75
2021/08/19 11:43:28;;;;;;;5.15;2.30;;;19.90;81.40;;;;;;5056367;28;20033;-75
2021/08/19 11:46:05;;;;;;;6.78;2.45;;;19.90;81.10;;;;;;5054947;28;20033;-75
2021/08/19 11:48:31;;;;;;;4.90;2.30;;;20.00;81.50;;;;;;5054755;28;20232;-75
2021/08/19 11:50:59;;;;;;;4.85;2.03;;;20.00;81.60;;;;;;5109422;28;20571;-75
2021/08/19 11:53:25;;;;;;;4.10;2.20;;;20.00;80.80;;;;;;5078088;28;20039;-75
2021/08/19 11:55:53;;;;;;;3.40;2.38;;;20.00;80.70;;;;;;5094456;28;20093;-75
2021/08/19 11:58:26;;;;;;;5.22;1.88;;;20.10;80.30;;;;;;5093418;28;20023;-75
2021/08/19 12:01:06;;;;;;;4.95;2.45;;;20.10;80.00;;;;;;5080378;28;20480;-75
2021/08/19 12:03:33;;;;;;;4.45;2.42;;;20.10;79.50;;;;;;5113245;28;20396;-75
2021/08/19 12:06:02;;;;;;;5.20;2.08;;;20.10;80.00;;;;;;5094788;28;20028;-75
2021/08/19 12:08:28;;;;;;;4.82;2.10;;;20.20;80.10;;;;;;5094965;28;20027;-86
2021/08/19 12:10:56;;;;;;;3.70;2.00;;;20.30;79.50;;;;;;5095917;28;20032;-86
2021/08/19 12:13:22;;;;;;;4.00;1.93;;;20.40;78.70;;;;;;5113620;28;20074;-86
2021/08/19 12:15:48;;;;;;;3.55;1.70;;;20.60;78.10;;;;;;5095342;28;20274;-86
2021/08/19 12:18:21;;;;;;;2.85;1.52;;;20.80;78.00;;;;;;5095520;28;20476;-86
2021/08/19 12:20:46;;;;;;;2.63;1.70;;;21.00;77.50;;;;;;5114352;28;20028;-86
2021/08/19 12:23:26;;;;;;;7.90;1.80;;;21.10;76.10;;;;;;5099533;28;20078;-86
2021/08/19 12:25:51;;;;;;;3.80;1.50;;;21.40;76.50;;;;;;5117589;28;20611;-86
2021/08/19 12:28:17;;;;;;;2.75;1.67;;;21.60;76.20;;;;;;5117597;28;20027;-86
2021/08/19 12:31:00;;;;;;;7.50;2.00;;;21.70;75.50;;;;;;5117433;28;20130;-86
2021/08/19 12:33:40;;;;;;;3.20;1.70;;;21.80;75.10;;;;;;5117718;28;20019;-86
2021/08/19 12:36:14;;;;;;;4.88;2.00;;;21.80;74.30;;;;;;5099365;28;20089;-86
2021/08/19 12:38:42;;;;;;;5.43;1.88;;;21.80;75.10;;;;;;5117402;28;20038;-86
2021/08/19 12:41:19;;;;;;;5.68;2.00;;;21.80;74.70;;;;;;5098952;28;20484;-86
2021/08/19 12:43:46;;;;;;;4.55;2.20;;;21.80;74.60;;;;;;5116965;28;20080;-86